createdAt,value
2022-12-11T00:02:04.853Z,24.27
2022-12-11T00:04:32.014Z,28.88
2022-12-11T00:06:58.949Z,26.42
2022-12-11T00:09:25.894Z,26.70
2022-12-11T00:11:52.544Z,26.92
2022-12-11T00:14:19.435Z,23.95
2022-12-11T00:16:48.344Z,21.65
2022-12-11T00:19:16.662Z,24.20
2022-12-11T00:21:43.368Z,27.48
2022-12-11T00:24:11.083Z,24.85
2022-12-11T00:26:37.855Z,25.08
2022-12-11T00:29:04.746Z,27.38
2022-12-11T00:31:31.377Z,24.25
2022-12-11T00:33:58.136Z,20.15
2022-12-11T00:36:26.552Z,19.55
2022-12-11T00:38:53.971Z,19.65
2022-12-11T00:41:20.998Z,22.73
2022-12-11T00:43:47.842Z,19.80
2022-12-11T00:46:14.874Z,22.50
2022-12-11T00:48:41.629Z,20.05
2022-12-11T00:51:08.319Z,18.90
2022-12-11T00:53:35.009Z,22.48
2022-12-11T00:56:01.656Z,23.00
2022-12-11T00:58:28.541Z,19.25
2022-12-11T01:00:55.485Z,26.05
2022-12-11T01:03:22.187Z,18.00
2022-12-11T01:05:54.410Z,21.77
2022-12-11T01:08:21.348Z,19.02
2022-12-11T01:10:48.183Z,27.38
2022-12-11T01:13:14.962Z,25.55
2022-12-11T01:15:44.874Z,23.30
2022-12-11T01:18:13.438Z,20.95
2022-12-11T01:20:43.149Z,22.40
2022-12-11T01:23:13.927Z,21.02
2022-12-11T01:25:41.333Z,20.15
2022-12-11T01:28:08.823Z,28.08
2022-12-11T01:30:36.761Z,24.90
2022-12-11T01:33:03.649Z,21.77
2022-12-11T01:35:30.404Z,22.45
2022-12-11T01:37:57.135Z,22.35
2022-12-11T01:40:23.933Z,21.83
2022-12-11T01:42:50.603Z,21.02
2022-12-11T01:45:40.387Z,22.23
2022-12-11T01:48:11.333Z,22.63
2022-12-11T01:51:03.927Z,21.83
2022-12-11T01:53:35.322Z,19.88
2022-12-11T01:56:03.765Z,22.13
2022-12-11T01:58:33.939Z,21.10
2022-12-11T02:01:02.862Z,22.83
2022-12-11T02:03:29.620Z,23.42
2022-12-11T02:06:00.450Z,22.15
2022-12-11T02:08:27.288Z,23.60
2022-12-11T02:11:22.405Z,22.75
2022-12-11T02:14:00.348Z,20.63
2022-12-11T02:16:38.655Z,19.13
2022-12-11T02:19:20.351Z,22.85
2022-12-11T02:21:54.644Z,30.55
2022-12-11T02:24:23.939Z,22.65
2022-12-11T02:27:13.634Z,20.83
2022-12-11T02:29:50.593Z,23.35
2022-12-11T02:35:19.107Z,25.90
2022-12-11T02:37:48.555Z,17.13
2022-12-11T02:40:20.625Z,23.98
2022-12-11T02:42:50.775Z,22.95
2022-12-11T02:45:19.381Z,22.55
2022-12-11T02:47:48.158Z,27.63
2022-12-11T02:50:19.607Z,25.65
2022-12-11T02:52:48.484Z,31.25
2022-12-11T02:55:16.835Z,24.88
2022-12-11T02:57:51.466Z,20.45
2022-12-11T03:00:19.654Z,27.92
2022-12-11T03:02:46.703Z,28.45
2022-12-11T03:05:14.900Z,33.90
2022-12-11T03:07:43.556Z,27.60
2022-12-11T03:10:14.685Z,27.58
2022-12-11T03:12:49.199Z,35.10
2022-12-11T03:15:21.751Z,30.88
2022-12-11T03:17:58.755Z,30.02
2022-12-11T03:21:05.718Z,28.48
2022-12-11T03:23:35.426Z,29.80
2022-12-11T03:26:23.989Z,33.92
2022-12-11T03:29:02.647Z,32.75
2022-12-11T03:32:00.572Z,29.25
2022-12-11T03:34:58.167Z,34.10
2022-12-11T03:37:27.826Z,28.10
2022-12-11T03:40:01.212Z,23.65
2022-12-11T03:42:28.282Z,28.80
2022-12-11T03:44:57.440Z,30.27
2022-12-11T03:47:28.828Z,34.25
2022-12-11T03:49:58.823Z,34.15
2022-12-11T03:52:28.148Z,31.83
2022-12-11T03:54:59.896Z,33.83
2022-12-11T03:57:31.752Z,29.48
2022-12-11T03:59:58.872Z,27.70
2022-12-11T04:02:25.558Z,31.77
2022-12-11T04:04:52.194Z,31.27
2022-12-11T04:07:18.951Z,32.10
2022-12-11T04:09:47.738Z,31.38
2022-12-11T04:12:14.376Z,30.38
2022-12-11T04:14:59.710Z,28.35
2022-12-11T04:17:45.055Z,30.50
2022-12-11T04:20:30.638Z,34.85
2022-12-11T04:23:15.831Z,23.92
2022-12-11T04:25:42.835Z,24.60
2022-12-11T04:28:09.570Z,30.15
2022-12-11T04:30:36.205Z,29.75
2022-12-11T04:33:04.171Z,30.30
2022-12-11T04:35:30.894Z,27.83
2022-12-11T04:37:58.819Z,32.20
2022-12-11T04:40:25.525Z,25.00
2022-12-11T04:42:53.373Z,34.22
2022-12-11T04:45:20.045Z,27.15
2022-12-11T04:47:46.641Z,26.10
2022-12-11T04:50:14.561Z,25.30
2022-12-11T04:52:41.873Z,24.80
2022-12-11T04:55:09.598Z,32.83
2022-12-11T04:57:36.794Z,32.97
2022-12-11T05:00:06.571Z,27.33
2022-12-11T05:02:37.844Z,36.05
2022-12-11T05:05:05.975Z,27.80
2022-12-11T05:07:33.099Z,32.90
2022-12-11T05:09:59.740Z,21.35
2022-12-11T05:12:26.348Z,21.90
2022-12-11T05:14:54.500Z,23.92
2022-12-11T05:17:22.439Z,26.35
2022-12-11T05:19:51.000Z,31.55
2022-12-11T05:22:19.180Z,28.20
2022-12-11T05:24:45.993Z,26.60
2022-12-11T05:27:13.165Z,23.48
2022-12-11T05:29:39.892Z,26.52
2022-12-11T05:32:06.741Z,30.08
2022-12-11T05:34:33.415Z,26.98
2022-12-11T05:37:00.078Z,27.90
2022-12-11T05:39:26.735Z,27.15
2022-12-11T05:41:53.322Z,25.13
2022-12-11T05:44:19.959Z,26.85
2022-12-11T05:46:46.585Z,30.42
2022-12-11T05:49:13.197Z,27.90
2022-12-11T05:51:41.452Z,25.55
2022-12-11T05:54:09.084Z,18.40
2022-12-11T05:56:37.252Z,24.58
2022-12-11T05:59:06.118Z,23.42
2022-12-11T06:01:42.503Z,22.80
2022-12-11T06:04:11.284Z,24.30
2022-12-11T06:06:38.598Z,24.75
2022-12-11T06:09:07.451Z,20.63
2022-12-11T06:11:34.883Z,24.73
2022-12-11T06:14:03.325Z,24.92
2022-12-11T06:16:32.138Z,26.98
2022-12-11T06:18:59.176Z,25.63
2022-12-11T06:21:31.013Z,24.40
2022-12-11T06:24:00.334Z,27.10
2022-12-11T06:26:27.478Z,24.27
2022-12-11T06:28:54.178Z,27.00
2022-12-11T06:31:21.467Z,24.92
2022-12-11T06:33:48.450Z,25.27
2022-12-11T06:36:17.931Z,20.23
2022-12-11T06:38:45.229Z,25.38
2022-12-11T06:41:12.832Z,24.88
2022-12-11T06:43:40.679Z,24.73
2022-12-11T06:46:16.893Z,30.80
2022-12-11T06:48:45.383Z,27.17
2022-12-11T06:51:14.825Z,23.55
2022-12-11T06:53:42.024Z,25.42
2022-12-11T06:56:14.504Z,26.27
2022-12-11T06:58:42.674Z,21.15
2022-12-11T07:01:21.485Z,20.50
2022-12-11T07:03:48.326Z,22.83
2022-12-11T07:06:15.732Z,20.38
2022-12-11T07:08:43.045Z,29.17
2022-12-11T07:11:12.694Z,24.92
2022-12-11T07:13:39.384Z,23.73
2022-12-11T07:16:10.844Z,24.05
2022-12-11T07:18:39.532Z,21.45
2022-12-11T07:21:07.490Z,21.77
2022-12-11T07:23:35.624Z,22.90
2022-12-11T07:26:14.311Z,26.02
2022-12-11T07:28:41.467Z,25.33
2022-12-11T07:31:13.399Z,24.05
2022-12-11T07:33:41.986Z,16.85
2022-12-11T07:36:11.183Z,27.20
2022-12-11T07:38:38.540Z,22.45
2022-12-11T07:41:08.115Z,26.50
2022-12-11T07:43:35.627Z,21.38
2022-12-11T07:46:06.278Z,27.13
2022-12-11T07:48:36.023Z,23.50
2022-12-11T07:51:22.873Z,29.40
2022-12-11T07:53:50.534Z,28.73
2022-12-11T07:56:18.109Z,22.75
2022-12-11T07:58:46.969Z,22.77
2022-12-11T08:01:16.065Z,25.48
2022-12-11T08:03:43.705Z,25.55
2022-12-11T08:06:11.297Z,20.95
2022-12-11T08:08:38.234Z,26.33
2022-12-11T08:11:07.076Z,23.40
2022-12-11T08:13:33.869Z,22.48
2022-12-11T08:16:04.696Z,20.65
2022-12-11T08:18:31.471Z,23.77
2022-12-11T08:20:58.021Z,28.48
2022-12-11T08:23:24.942Z,24.65
2022-12-11T08:25:51.663Z,27.75
2022-12-11T08:28:18.222Z,28.40
2022-12-11T08:30:45.084Z,24.85
2022-12-11T08:33:11.703Z,22.95
2022-12-11T08:35:41.935Z,25.02
2022-12-11T08:38:08.651Z,22.55
2022-12-11T08:40:35.246Z,24.02
2022-12-11T08:43:01.842Z,21.13
2022-12-11T08:45:28.425Z,24.25
2022-12-11T08:47:55.081Z,18.63
2022-12-11T08:50:21.800Z,19.00
2022-12-11T08:52:48.476Z,24.08
2022-12-11T08:55:16.507Z,26.60
2022-12-11T08:57:43.092Z,24.33
2022-12-11T09:00:12.737Z,29.80
2022-12-11T09:02:39.740Z,23.42
2022-12-11T09:05:08.111Z,26.33
2022-12-11T09:07:36.771Z,28.42
2022-12-11T09:10:05.201Z,20.92
2022-12-11T09:12:33.407Z,20.85
2022-12-11T09:15:00.388Z,28.40
2022-12-11T09:17:27.421Z,19.55
2022-12-11T09:19:55.923Z,26.40
2022-12-11T09:22:22.808Z,21.25
2022-12-11T09:24:50.418Z,22.55
2022-12-11T09:27:17.184Z,23.58
2022-12-11T09:29:43.841Z,23.58
2022-12-11T09:32:10.496Z,24.38
2022-12-11T09:34:37.177Z,25.27
2022-12-11T09:37:03.940Z,25.75
2022-12-11T09:39:30.717Z,22.77
2022-12-11T09:42:23.131Z,23.38
2022-12-11T09:45:03.156Z,21.92
2022-12-11T09:47:41.424Z,28.48
2022-12-11T09:50:10.848Z,23.08
2022-12-11T09:52:49.468Z,25.05
2022-12-11T09:55:25.415Z,25.90
2022-12-11T09:57:52.184Z,23.33
2022-12-11T10:01:02.718Z,25.63
2022-12-11T10:03:29.394Z,22.35
2022-12-11T10:06:10.391Z,37.05
2022-12-11T10:09:01.523Z,30.55
2022-12-11T10:11:40.404Z,28.13
2022-12-11T10:14:20.463Z,25.08
2022-12-11T10:16:51.916Z,24.23
2022-12-11T10:19:22.272Z,23.52
2022-12-11T10:21:51.749Z,22.05
2022-12-11T10:24:48.839Z,28.63
2022-12-11T10:27:23.485Z,20.80
2022-12-11T10:30:14.464Z,24.10
2022-12-11T10:32:52.265Z,23.73
2022-12-11T10:35:58.378Z,26.90
2022-12-11T10:38:29.626Z,26.02
2022-12-11T10:41:02.575Z,36.50
2022-12-11T10:43:55.644Z,28.95
2022-12-11T10:46:25.087Z,27.13
2022-12-11T10:49:01.621Z,29.25
2022-12-11T10:51:31.418Z,25.70
2022-12-11T10:54:07.346Z,32.78
2022-12-11T10:56:37.885Z,29.67
2022-12-11T10:59:05.075Z,26.20
2022-12-11T11:01:32.813Z,27.00
2022-12-11T11:04:26.255Z,32.00
2022-12-11T11:07:08.966Z,31.08
2022-12-11T11:09:36.747Z,31.27
2022-12-11T11:12:07.804Z,32.20
2022-12-11T11:14:34.979Z,31.85
2022-12-11T11:17:01.732Z,27.27
2022-12-11T11:19:36.820Z,30.23
2022-12-11T11:22:14.151Z,29.90
2022-12-11T11:24:45.331Z,31.33
2022-12-11T11:27:29.594Z,27.08
2022-12-11T11:30:00.511Z,33.28
2022-12-11T11:32:33.704Z,31.73
2022-12-11T11:35:12.841Z,27.67
2022-12-11T11:37:41.970Z,25.65
2022-12-11T11:40:18.525Z,31.13
2022-12-11T11:42:57.186Z,29.83
2022-12-11T11:45:53.347Z,27.92
2022-12-11T11:48:34.200Z,22.83
2022-12-11T11:51:16.959Z,26.20
2022-12-11T11:53:49.593Z,22.88
2022-12-11T11:56:36.323Z,30.38
2022-12-11T11:59:05.781Z,24.98
2022-12-11T12:01:32.636Z,22.58
2022-12-11T12:04:01.537Z,25.38
2022-12-11T12:06:55.832Z,27.40
2022-12-11T12:09:34.650Z,23.63
2022-12-11T12:12:27.525Z,19.25
2022-12-11T12:15:22.502Z,20.60
2022-12-11T12:17:56.319Z,22.17
2022-12-11T12:20:41.259Z,20.48
2022-12-11T12:23:37.342Z,19.88
2022-12-11T12:26:12.020Z,23.80
2022-12-11T12:29:00.769Z,24.38
2022-12-11T12:31:49.209Z,20.95
2022-12-11T12:34:40.749Z,22.58
2022-12-11T12:37:25.953Z,19.60
2022-12-11T12:40:27.145Z,25.05
2022-12-11T12:43:00.478Z,22.73
2022-12-11T12:45:59.536Z,24.60
2022-12-11T12:48:27.442Z,22.58
2022-12-11T12:50:55.876Z,28.45
2022-12-11T12:53:29.372Z,25.83
2022-12-11T12:55:58.517Z,23.23
2022-12-11T12:58:31.897Z,26.90
2022-12-11T13:01:07.797Z,26.38
2022-12-11T13:03:38.166Z,26.13
2022-12-11T13:06:11.019Z,24.85
2022-12-11T13:08:49.523Z,26.77
2022-12-11T13:11:19.280Z,20.25
2022-12-11T13:13:50.265Z,17.73
2022-12-11T13:16:19.818Z,21.80
2022-12-11T13:18:48.319Z,22.90
2022-12-11T13:21:29.803Z,21.95
2022-12-11T13:24:15.107Z,21.10
2022-12-11T13:26:42.781Z,23.95
2022-12-11T13:29:38.638Z,16.60
2022-12-11T13:32:07.973Z,19.02
2022-12-11T13:34:38.105Z,18.02
2022-12-11T13:37:07.445Z,19.55
2022-12-11T13:39:40.251Z,16.85
2022-12-11T13:42:21.421Z,18.35
2022-12-11T13:44:49.043Z,21.98
2022-12-11T13:47:18.863Z,20.63
2022-12-11T13:49:51.949Z,17.70
2022-12-11T13:52:25.942Z,15.60
2022-12-11T13:54:56.252Z,19.33
2022-12-11T13:57:26.028Z,19.08
2022-12-11T13:59:58.180Z,18.50
2022-12-11T14:02:30.092Z,15.18
2022-12-11T14:05:03.870Z,16.48
2022-12-11T14:08:05.423Z,15.73
2022-12-11T14:10:33.104Z,17.73
2022-12-11T14:13:04.038Z,17.27
2022-12-11T14:15:32.218Z,16.13
2022-12-11T14:17:59.988Z,12.98
2022-12-11T14:20:32.990Z,15.35
2022-12-11T14:23:18.866Z,18.20
2022-12-11T14:26:03.312Z,13.32
2022-12-11T14:28:45.039Z,13.32
2022-12-11T14:31:17.039Z,12.98
2022-12-11T14:34:11.905Z,19.20
2022-12-11T14:36:40.149Z,17.08
2022-12-11T14:39:33.993Z,14.27
2022-12-11T14:42:04.355Z,14.68
2022-12-11T14:44:35.170Z,13.55
2022-12-11T14:47:12.941Z,12.50
2022-12-11T14:50:16.923Z,13.20
2022-12-11T14:52:48.483Z,12.85
2022-12-11T14:55:19.960Z,14.93
2022-12-11T14:57:50.146Z,12.75
2022-12-11T15:00:24.278Z,14.05
2022-12-11T15:03:02.664Z,13.50
2022-12-11T15:05:32.467Z,17.02
2022-12-11T15:08:26.024Z,13.35
2022-12-11T15:11:05.312Z,14.57
2022-12-11T15:13:34.320Z,15.63
2022-12-11T15:16:02.508Z,16.77
2022-12-11T15:18:41.200Z,16.05
2022-12-11T15:21:11.305Z,14.65
2022-12-11T15:23:58.437Z,15.43
2022-12-11T15:26:37.701Z,14.10
2022-12-11T15:29:31.223Z,12.50
2022-12-11T15:32:02.048Z,14.63
2022-12-11T15:34:34.162Z,16.85
2022-12-11T15:37:01.158Z,14.80
2022-12-11T15:39:27.907Z,12.55
2022-12-11T15:41:54.604Z,18.52
2022-12-11T15:44:23.725Z,18.80
2022-12-11T15:46:51.927Z,27.40
2022-12-11T15:49:23.985Z,19.45
2022-12-11T15:51:50.795Z,18.50
2022-12-11T15:54:17.581Z,19.73
2022-12-11T15:56:45.339Z,19.70
2022-12-11T15:59:12.102Z,16.27
2022-12-11T16:01:38.771Z,23.25
2022-12-11T16:04:05.616Z,19.90
2022-12-11T16:06:33.293Z,16.85
2022-12-11T16:09:00.126Z,16.45
2022-12-11T16:11:26.997Z,17.17
2022-12-11T16:13:53.686Z,17.08
2022-12-11T16:16:20.487Z,18.63
2022-12-11T16:18:47.270Z,18.58
2022-12-11T16:21:18.270Z,16.27
2022-12-11T16:23:48.357Z,21.48
2022-12-11T16:26:15.824Z,15.95
2022-12-11T16:28:43.375Z,18.08
2022-12-11T16:31:11.987Z,16.02
2022-12-11T16:33:39.392Z,13.00
2022-12-11T16:36:19.525Z,15.32
2022-12-11T16:38:53.126Z,14.13
2022-12-11T16:41:20.409Z,17.15
2022-12-11T16:43:47.544Z,16.52
2022-12-11T16:46:18.949Z,13.43
2022-12-11T16:48:46.980Z,14.10
2022-12-11T16:51:13.827Z,20.52
2022-12-11T16:53:41.069Z,14.43
2022-12-11T16:56:08.615Z,14.38
2022-12-11T16:58:35.575Z,14.65
2022-12-11T17:01:12.238Z,14.48
2022-12-11T17:03:39.100Z,16.30
2022-12-11T17:06:07.746Z,15.70
2022-12-11T17:08:34.590Z,17.15
2022-12-11T17:11:04.322Z,18.13
2022-12-11T17:13:35.845Z,16.10
2022-12-11T17:16:12.722Z,16.63
2022-12-11T17:18:40.027Z,13.88
2022-12-11T17:21:16.490Z,15.43
2022-12-11T17:23:43.410Z,15.88
2022-12-11T17:26:10.048Z,15.70
2022-12-11T17:28:38.443Z,14.63
2022-12-11T17:31:13.864Z,13.93
2022-12-11T17:33:40.724Z,13.07
2022-12-11T17:36:29.368Z,12.63
2022-12-11T17:38:56.147Z,10.10
2022-12-11T17:41:22.854Z,11.30
2022-12-11T17:43:51.688Z,11.93
2022-12-11T17:46:19.936Z,16.30
2022-12-11T17:48:47.694Z,15.15
2022-12-11T17:51:21.952Z,16.38
2022-12-11T17:53:48.794Z,13.77
2022-12-11T17:56:16.584Z,12.02
2022-12-11T17:58:44.528Z,13.55
2022-12-11T18:01:13.245Z,14.13
2022-12-11T18:03:41.037Z,20.73
2022-12-11T18:06:11.268Z,12.57
2022-12-11T18:08:38.734Z,13.35
2022-12-11T18:11:08.146Z,11.77
2022-12-11T18:13:35.583Z,11.55
2022-12-11T18:16:08.999Z,18.05
2022-12-11T18:18:36.101Z,12.10
2022-12-11T18:21:07.049Z,11.30
2022-12-11T18:23:34.007Z,11.63
2022-12-11T18:26:01.159Z,14.75
2022-12-11T18:28:28.129Z,14.43
2022-12-11T18:30:54.798Z,13.50
2022-12-11T18:33:21.452Z,15.02
2022-12-11T18:35:51.615Z,10.80
2022-12-11T18:38:18.249Z,11.93
2022-12-11T18:40:45.304Z,13.27
2022-12-11T18:43:12.184Z,15.63
2022-12-11T18:45:44.982Z,13.18
2022-12-11T18:48:12.547Z,15.63
2022-12-11T18:50:48.111Z,12.77
2022-12-11T18:53:15.470Z,14.05
2022-12-11T18:55:47.486Z,16.73
2022-12-11T18:58:16.562Z,11.48
2022-12-11T19:00:44.430Z,14.77
2022-12-11T19:03:13.831Z,14.55
2022-12-11T19:05:42.701Z,14.20
2022-12-11T19:08:10.816Z,13.10
2022-12-11T19:10:42.945Z,12.35
2022-12-11T19:13:09.715Z,12.68
2022-12-11T19:15:41.832Z,10.32
2022-12-11T19:18:09.206Z,11.50
2022-12-11T19:20:49.251Z,10.13
2022-12-11T19:23:19.096Z,12.00
2022-12-11T19:25:47.571Z,11.20
2022-12-11T19:28:15.446Z,11.13
2022-12-11T19:30:44.095Z,10.18
2022-12-11T19:33:10.852Z,13.38
2022-12-11T19:35:37.952Z,12.07
2022-12-11T19:38:05.099Z,12.35
2022-12-11T19:40:31.946Z,10.48
2022-12-11T19:42:58.763Z,10.90
2022-12-11T19:45:25.957Z,8.27
2022-12-11T19:47:53.677Z,11.05
2022-12-11T19:50:20.276Z,10.90
2022-12-11T19:52:47.312Z,10.23
2022-12-11T19:55:15.228Z,13.45
2022-12-11T19:57:42.049Z,9.63
2022-12-11T20:00:09.262Z,8.98
2022-12-11T20:02:36.066Z,12.75
2022-12-11T20:05:03.185Z,15.20
2022-12-11T20:07:30.856Z,9.35
2022-12-11T20:10:00.259Z,9.77
2022-12-11T20:12:27.216Z,13.68
2022-12-11T20:14:53.930Z,10.50
2022-12-11T20:17:20.720Z,9.93
2022-12-11T20:19:47.427Z,11.10
2022-12-11T20:22:14.129Z,13.13
2022-12-11T20:24:40.973Z,12.43
2022-12-11T20:27:07.665Z,11.75
2022-12-11T20:29:34.459Z,9.18
2022-12-11T20:32:01.291Z,11.82
2022-12-11T20:34:28.171Z,12.32
2022-12-11T20:36:55.702Z,10.65
2022-12-11T20:39:22.549Z,12.55
2022-12-11T20:41:49.429Z,9.82
2022-12-11T20:44:16.343Z,11.20
2022-12-11T20:46:42.956Z,9.25
2022-12-11T20:49:13.081Z,11.45
2022-12-11T20:51:40.981Z,8.55
2022-12-11T20:54:08.035Z,7.93
2022-12-11T20:56:34.897Z,10.93
2022-12-11T20:59:01.960Z,11.77
2022-12-11T21:01:32.060Z,9.45
2022-12-11T21:04:00.293Z,11.18
2022-12-11T21:06:32.935Z,10.18
2022-12-11T21:09:02.507Z,8.45
2022-12-11T21:11:29.555Z,9.95
2022-12-11T21:13:56.232Z,9.95
2022-12-11T21:16:23.335Z,9.52
2022-12-11T21:18:50.269Z,10.00
2022-12-11T21:21:17.221Z,11.80
2022-12-11T21:23:44.643Z,9.05
2022-12-11T21:26:11.801Z,10.75
2022-12-11T21:28:38.604Z,11.93
2022-12-11T21:31:08.276Z,11.30
2022-12-11T21:33:35.622Z,8.70
2022-12-11T21:36:03.930Z,10.35
2022-12-11T21:38:30.702Z,10.15
2022-12-11T21:41:06.111Z,14.25
2022-12-11T21:43:33.137Z,12.48
2022-12-11T21:46:01.429Z,10.25
2022-12-11T21:48:29.194Z,11.73
2022-12-11T21:50:56.181Z,11.95
2022-12-11T21:53:23.293Z,11.95
2022-12-11T21:55:50.096Z,10.77
2022-12-11T21:58:16.890Z,13.75
2022-12-11T22:00:45.629Z,10.13
2022-12-11T22:03:12.523Z,11.95
2022-12-11T22:05:40.492Z,11.27
2022-12-11T22:08:08.339Z,13.50
2022-12-11T22:10:35.544Z,12.95
2022-12-11T22:13:02.441Z,17.70
2022-12-11T22:15:29.114Z,11.88
2022-12-11T22:17:56.919Z,11.30
2022-12-11T22:20:23.568Z,11.25
2022-12-11T22:22:50.197Z,10.52
2022-12-11T22:25:17.250Z,10.15
2022-12-11T22:27:45.045Z,10.57
2022-12-11T22:30:12.567Z,13.45
2022-12-11T22:32:39.274Z,11.80
2022-12-11T22:35:08.190Z,12.02
2022-12-11T22:37:35.384Z,9.55
2022-12-11T22:40:02.013Z,11.13
2022-12-11T22:42:28.738Z,15.10
2022-12-11T22:44:55.390Z,11.98
2022-12-11T22:47:22.073Z,9.93
2022-12-11T22:49:48.962Z,10.98
2022-12-11T22:52:15.606Z,12.23
2022-12-11T22:54:42.743Z,12.73
2022-12-11T22:57:09.821Z,12.52
2022-12-11T22:59:36.934Z,11.55
2022-12-11T23:02:04.774Z,14.80
2022-12-11T23:04:32.784Z,12.23
2022-12-11T23:07:01.693Z,12.20
2022-12-11T23:09:29.554Z,11.55
2022-12-11T23:11:58.651Z,10.38
2022-12-11T23:14:26.161Z,10.30
2022-12-11T23:16:54.184Z,9.52
2022-12-11T23:19:25.457Z,11.30
2022-12-11T23:21:53.749Z,9.52
2022-12-11T23:24:20.330Z,8.75
2022-12-11T23:26:48.249Z,7.78
2022-12-11T23:29:15.253Z,8.32
2022-12-11T23:31:42.170Z,13.38
2022-12-11T23:34:08.826Z,8.82
2022-12-11T23:36:35.524Z,8.73
2022-12-11T23:41:29.022Z,9.13
2022-12-11T23:43:56.636Z,10.20
2022-12-11T23:46:26.284Z,13.50
2022-12-11T23:48:53.823Z,10.45
2022-12-11T23:51:22.699Z,12.18
2022-12-11T23:53:49.748Z,8.88
2022-12-11T23:56:28.320Z,11.20
2022-12-11T23:58:56.137Z,11.60
